Latest Weather Observations for Armidale Airport

IDN60801

Issued at 10:02 am EDT Wednesday 22 February 2017 (issued every 30 minutes, with the page automatically refreshed every 10 minutes)

About weather observations | Map of weather stations | Latest weather observations for NSW | Other Formats
Station Details ID: 056238 Name: ARMIDALE AIRPORT AWS Lat: -30.53 Lon: 151.62 Height: 1079.0 m
Data from the previous 72 hours. | See also: Recent months at Armidale Airport
Date/Time
EDT
Temp
°C
App
Temp
°C
Dew
Point
°C
Rel
Hum
%
Delta-T
°C
Wind Press
QNH
hPa
Press
MSL
hPa
Rain since
9am
mm
Dir  Spd
km/h
Gust
km/h
Spd
kts
Gust
kts
22/10:00am 18.6 17.0 14.9 79 2.3 NE 17 24 9 13 1024.9 1019.3 0.0
22/09:30am 17.1 14.2 14.0 82 1.9 NE 22 28 12 15 1024.7 1019.1 0.0
22/09:00am 17.4 14.4 14.7 84 1.6 ENE 24 30 13 16 1024.5 1018.8 0.0
22/08:30am 16.3 14.3 15.5 95 0.5 ENE 20 26 11 14 1024.5 1018.8 0.0
22/08:00am 15.1 12.9 14.9 99 0.1 ENE 20 26 11 14 1024.4 1018.7 0.0
22/07:44am 15.1 13.5 15.1 100 0.0 E 17 20 9 11 1024.4 1018.7 0.0
22/07:30am 14.3 12.4 14.3 100 0.0 E 17 20 9 11 1024.4 1018.7 0.0
22/07:07am 13.6 11.1 13.6 100 0.0 E 19 20 10 11 1024.1 1018.5 0.0
22/07:00am 13.4 10.9 13.4 100 0.0 E 19 24 10 13 1024.0 1018.4 0.0
22/06:30am 13.5 11.4 13.5 100 0.0 E 17 20 9 11 1023.8 1018.2 0.0
22/06:00am 13.4 11.6 13.4 100 0.0 E 15 20 8 11 1023.4 1017.7 0.0
22/05:30am 13.3 11.9 13.3 100 0.0 E 13 17 7 9 1023.0 1017.4 0.0
22/05:00am 13.6 11.9 13.6 100 0.0 ESE 15 19 8 10 1022.9 1017.3 0.0
22/04:30am 13.8 12.1 13.6 99 0.1 E 15 20 8 11 1022.8 1017.1 0.0
22/04:00am 14.2 13.0 14.0 99 0.1 E 13 19 7 10 1022.7 1017.0 0.0
22/03:30am 14.8 12.9 14.2 96 0.4 E 17 20 9 11 1022.8 1017.1 0.0
22/03:00am 15.7 13.0 14.6 93 0.7 E 22 30 12 16 1022.9 1017.3 0.0
22/02:30am 15.5 13.3 14.9 96 0.4 ESE 20 26 11 14 1022.9 1017.3 0.0
22/02:13am 15.5 14.0 15.2 98 0.2 ESE 17 22 9 12 1022.8 1017.1 0.0
22/02:00am 15.5 13.4 15.3 99 0.1 E 20 26 11 14 1022.7 1017.0 0.0
22/01:30am 15.4 13.3 15.2 99 0.1 E 20 28 11 15 1022.6 1016.9 0.0
22/01:00am 15.4 13.3 15.2 99 0.1 E 20 26 11 14 1022.9 1017.3 0.0
22/12:55am 15.5 13.4 15.3 99 0.1 E 20 26 11 14 1023.0 1017.4 0.0
22/12:30am 15.7 13.9 15.4 98 0.2 E 19 24 10 13 1023.4 1017.7 0.0
22/12:00am 16.0 14.2 15.5 97 0.3 E 19 24 10 13 1023.7 1018.1 0.0
 
Date/Time
EDT
Temp
°C
App
Temp
°C
Dew
Point
°C
Rel
Hum
%
Delta-T
°C
Wind Press
QNH
hPa
Press
MSL
hPa
Rain since
9am
mm
Dir  Spd
km/h
Gust
km/h
Spd
kts
Gust
kts
21/11:30pm 15.9 14.4 15.3 96 0.4 ESE 17 24 9 13 1023.8 1018.2 0.0
21/11:00pm 16.5 14.5 15.4 93 0.7 E 20 28 11 15 1023.7 1018.1 0.0
21/10:30pm 16.6 14.8 15.5 93 0.7 E 19 26 10 14 1023.8 1018.2 0.0
21/10:00pm 17.0 14.6 15.3 90 1.0 E 22 28 12 15 1023.5 1017.8 0.0
21/09:30pm 17.7 15.6 14.8 83 1.8 E 19 24 10 13 1023.4 1017.7 0.0
21/09:00pm 18.2 15.9 14.7 80 2.1 ENE 20 28 11 15 1023.0 1017.4 0.0
21/08:30pm 18.7 16.6 14.6 77 2.5 ENE 19 28 10 15 1022.8 1017.1 0.0
21/08:00pm 19.1 17.4 14.6 75 2.7 NE 17 24 9 13 1022.6 1016.9 0.0
21/07:30pm 19.5 17.3 14.5 73 3.1 ENE 19 22 10 12 1022.1 1016.5 0.0
21/07:00pm 20.2 17.9 14.6 70 3.4 ENE 20 24 11 13 1021.8 1016.1 0.0
21/06:30pm 21.3 19.2 15.2 68 3.8 E 20 28 11 15 1021.3 1015.6 0.0
21/06:00pm 22.4 19.9 14.0 59 5.1 E 20 26 11 14 1020.8 1015.1 0.0
21/05:30pm 23.1 21.0 13.6 55 5.8 E 17 24 9 13 1020.7 1015.0 0.0
21/05:00pm 23.3 22.9 12.9 52 6.3 SSW 7 20 4 11 1020.6 1014.9 0.0
21/04:30pm 24.1 22.1 8.5 37 8.8 NNW 9 13 5 7 1020.6 1014.9 0.0
21/04:00pm 24.5 22.9 8.9 37 8.8 NW 7 13 4 7 1020.4 1014.7 0.0
21/03:30pm 24.3 21.8 8.3 36 9.0 N 11 19 6 10 1020.4 1014.7 0.0
21/03:00pm 24.2 21.4 8.6 37 8.8 N 13 17 7 9 1020.7 1015.0 0.0
21/02:30pm 24.3 22.0 10.6 42 8.0 N 13 17 7 9 1020.9 1015.2 0.0
21/02:00pm 23.3 21.6 9.7 42 7.8 W 9 13 5 7 1021.0 1015.3 0.0
21/01:30pm 23.5 21.7 9.5 41 8.0 WNW 9 15 5 8 1021.5 1015.8 0.0
21/01:00pm 23.1 21.0 8.4 39 8.2 W 9 20 5 11 1021.9 1016.2 0.0
21/12:30pm 22.7 19.6 8.8 41 7.8 NW 15 24 8 13 1022.0 1016.4 0.0
21/12:00pm 22.2 19.3 8.3 41 7.7 NNW 13 20 7 11 1022.2 1016.6 0.0
21/11:30am 22.0 19.2 8.5 42 7.5 WNW 13 19 7 10 1022.7 1017.0 0.0
21/11:00am 21.9 18.8 8.8 43 7.3 WNW 15 24 8 13 1022.6 1016.9 0.0
21/10:30am 20.6 19.4 11.5 56 5.3 NW 9 13 5 7 1022.6 1016.9 0.0
21/10:00am 19.4 19.8 12.4 64 4.1 N 2 7 1 4 1022.2 1016.6 0.0
21/09:30am 17.8 18.1 13.5 76 2.6 ENE 4 6 2 3 1022.2 1016.6 0.0
21/09:00am 15.6 15.3 13.3 86 1.3 ENE 7 11 4 6 1022.0 1016.4 0.2
21/08:30am 14.4 13.6 13.0 91 0.8 ENE 9 11 5 6 1021.8 1016.1 0.2
21/08:00am 13.5 12.0 13.0 97 0.3 E 13 13 7 7 1021.4 1015.7 0.2
21/07:30am 12.3 10.9 12.1 99 0.1 E 11 13 6 7 1020.9 1015.2 0.2
21/07:00am 11.1 10.1 10.9 99 0.1 SE 7 9 4 5 1020.3 1014.5 0.2
21/06:30am 11.5 10.2 11.3 99 0.1 SE 9 11 5 6 1019.8 1014.1 0.2
21/06:00am 11.6 9.2 11.4 99 0.1 E 15 17 8 9 1019.1 1013.4 0.2
21/05:30am 11.7 9.7 11.4 98 0.2 ENE 13 17 7 9 1018.9 1013.2 0.2
21/05:00am 11.6 9.2 11.3 98 0.2 ENE 15 17 8 9 1018.9 1013.2 0.2
21/04:30am 11.7 8.9 11.4 98 0.2 ENE 17 19 9 10 1018.8 1013.1 0.2
21/04:00am 11.6 9.2 11.3 98 0.2 ENE 15 17 8 9 1018.9 1013.2 0.2
21/03:30am 11.6 8.8 11.3 98 0.2 ENE 17 20 9 11 1018.7 1013.0 0.2
21/03:00am 11.2 8.2 10.6 96 0.3 ENE 17 19 9 10 1018.7 1013.0 0.2
21/02:30am 11.1 7.9 10.0 93 0.6 ENE 17 19 9 10 1018.9 1013.2 0.2
21/02:00am 11.1 7.8 9.4 89 0.9 ENE 17 20 9 11 1019.1 1013.4 0.2
21/01:30am 11.6 7.9 9.5 87 1.1 ENE 19 20 10 11 1019.5 1013.8 0.2
21/01:00am 11.9 8.6 9.5 85 1.3 E 17 20 9 11 1019.5 1013.8 0.2
21/12:30am 12.1 9.2 9.5 84 1.4 E 15 19 8 10 1019.7 1014.0 0.2
21/12:00am 10.4 7.4 7.5 82 1.5 ENE 13 15 7 8 1019.7 1014.0 0.2
 
Date/Time
EDT
Temp
°C
App
Temp
°C
Dew
Point
°C
Rel
Hum
%
Delta-T
°C
Wind Press
QNH
hPa
Press
MSL
hPa
Rain since
9am
mm
Dir  Spd
km/h
Gust
km/h
Spd
kts
Gust
kts
20/11:30pm 12.0 9.2 7.1 72 2.5 ENE 11 11 6 6 1019.6 1013.9 0.2
20/11:00pm 12.0 9.4 6.3 68 2.9 ENE 9 11 5 6 1019.5 1013.8 0.2
20/10:30pm 13.1 11.0 5.8 61 3.7 S 6 7 3 4 1019.3 1013.5 0.2
20/10:00pm 14.7 12.1 6.3 57 4.3 S 9 11 5 6 1019.1 1013.4 0.2
20/09:30pm 15.3 12.6 5.5 52 5.0 SSW 9 11 5 6 1018.8 1013.1 0.2
20/09:00pm 15.9 12.9 5.8 51 5.1 SSW 11 13 6 7 1018.6 1012.8 0.2
20/08:30pm 16.2 13.2 6.1 51 5.2 SW 11 13 6 7 1018.0 1012.3 0.2
20/08:00pm 16.2 14.0 7.9 58 4.4 W 9 9 5 5 1017.7 1011.9 0.2
20/07:30pm 18.6 16.6 7.1 47 6.1 W 7 11 4 6 1017.1 1011.4 0.2
20/07:00pm 20.4 18.0 5.2 37 7.9 WNW 7 17 4 9 1016.6 1010.8 0.2
20/06:30pm 20.9 17.6 4.5 34 8.4 WNW 11 17 6 9 1016.1 1010.4 0.2
20/06:00pm 21.2 17.2 5.1 35 8.4 NW 15 20 8 11 1015.7 1009.9 0.2
20/05:30pm 21.3 17.2 4.4 33 8.7 WNW 15 26 8 14 1015.6 1009.8 0.2
20/05:00pm 21.3 17.7 5.2 35 8.4 WNW 13 20 7 11 1015.4 1009.6 0.2
20/04:30pm 21.2 16.6 3.9 32 8.8 WNW 17 22 9 12 1015.3 1009.5 0.2
20/04:00pm 21.1 16.2 4.2 33 8.7 NW 19 26 10 14 1015.1 1009.3 0.2
20/03:30pm 20.9 16.1 5.7 37 8.0 NW 20 28 11 15 1015.0 1009.2 0.2
20/03:00pm 20.6 16.7 5.4 37 7.9 WNW 15 24 8 13 1015.1 1009.3 0.2
20/02:30pm 20.7 17.6 7.3 42 7.2 W 13 26 7 14 1015.1 1009.3 0.2
20/02:00pm 20.1 16.7 5.7 39 7.5 WNW 13 20 7 11 1015.4 1009.6 0.2
20/01:30pm 19.7 15.9 7.4 45 6.6 WNW 17 22 9 12 1015.6 1009.8 0.2
20/01:00pm 19.3 14.7 5.7 41 7.1 W 19 30 10 16 1015.8 1010.0 0.2
20/12:30pm 18.8 14.1 6.0 43 6.7 WSW 20 30 11 16 1016.0 1010.2 0.2
20/12:00pm 18.8 15.1 7.9 49 5.9 W 17 30 9 16 1016.0 1010.2 0.0
20/11:30am 17.3 12.4 4.9 44 6.3 WSW 20 33 11 18 1016.3 1010.5 0.0
20/11:00am 17.0 11.7 5.0 45 6.1 W 22 33 12 18 1016.4 1010.6 0.0
20/10:30am 16.9 12.1 5.5 47 5.8 W 20 28 11 15 1016.4 1010.6 0.0
20/10:00am 15.9 12.2 4.3 46 5.7 WSW 13 19 7 10 1016.1 1010.4 0.0
20/09:30am 15.7 12.1 5.0 49 5.4 W 13 19 7 10 1015.9 1010.1 0.0
20/09:00am 14.7 12.3 5.2 53 4.8 WNW 7 11 4 6 1015.8 1010.0 33.2
20/08:30am 13.4 10.8 4.0 53 4.5 NW 7 9 4 5 1015.5 1009.7 33.2
20/08:00am 12.5 10.1 5.4 62 3.5 NNW 7 9 4 5 1015.1 1009.3 33.2
20/07:30am 10.4 8.5 6.5 77 1.9 NW 6 7 3 4 1014.7 1008.9 33.2
20/07:00am 8.6 6.3 5.7 82 1.4 NW 7 9 4 5 1014.5 1008.7 33.2
20/06:30am 8.5 5.2 4.7 77 1.8 W 11 15 6 8 1014.1 1008.3 33.2
20/06:00am 9.4 5.6 5.6 77 1.8 W 15 20 8 11 1014.0 1008.2 33.2
20/05:30am 9.3 6.8 8.2 93 0.6 WNW 11 13 6 7 1013.8 1008.0 33.2
20/05:00am 9.9 7.1 8.7 92 0.6 W 13 17 7 9 1013.6 1007.8 33.2
20/04:30am 10.5 7.7 9.9 96 0.3 WNW 15 17 8 9 1013.3 1007.4 33.2
20/04:00am 10.9 8.8 8.3 84 1.4 WNW 9 13 5 7 1012.9 1007.1 33.2
20/03:30am 11.9 8.0 9.3 84 1.4 W 20 28 11 15 1012.5 1006.6 33.2
20/03:00am 13.2 9.8 12.4 95 0.5 W 22 28 12 15 1012.6 1006.7 33.2
20/02:30am 13.8 11.1 13.6 99 0.1 W 20 28 11 15 1012.5 1006.6 33.2
20/02:00am 14.0 12.0 14.0 100 0.0 W 17 26 9 14 1012.5 1006.6 33.2
20/01:35am 14.1 12.2 14.1 100 0.0 WNW 17 22 9 12 1012.7 1006.8 33.2
20/01:30am 14.2 12.3 14.2 100 0.0 WNW 17 22 9 12 1012.7 1006.8 33.2
20/01:16am 14.3 12.4 14.3 100 0.0 WNW 17 22 9 12 1012.3 1006.4 33.2
20/01:00am 14.5 12.7 14.5 100 0.0 WNW 17 22 9 12 1012.6 1006.7 33.2
20/12:30am 14.7 13.4 14.7 100 0.0 WNW 15 20 8 11 1012.3 1006.4 33.2
20/12:00am 14.8 14.3 14.8 100 0.0 NW 11 15 6 8 1012.4 1006.5 33.2
 
Date/Time
EDT
Temp
°C
App
Temp
°C
Dew
Point
°C
Rel
Hum
%
Delta-T
°C
Wind Press
QNH
hPa
Press
MSL
hPa
Rain since
9am
mm
Dir  Spd
km/h
Gust
km/h
Spd
kts
Gust
kts
19/11:30pm 14.9 14.8 14.9 100 0.0 NW 9 11 5 6 1012.6 1006.7 33.2
19/11:00pm 14.9 14.8 14.9 100 0.0 NW 9 13 5 7 1013.0 1007.2 33.2
19/10:59pm 14.8 14.6 14.8 100 0.0 NW 9 13 5 7 1013.0 1007.2 33.2
19/10:30pm 14.7 14.9 14.7 100 0.0 N 7 9 4 5 1013.3 1007.4 33.0
19/10:00pm 14.7 14.9 14.7 100 0.0 WSW 7 9 4 5 1013.4 1007.5 33.0
19/09:39pm 14.6 14.4 14.6 100 0.0 W 9 13 5 7 1013.5 1007.6 33.0
19/09:30pm 14.5 14.6 14.5 100 0.0 NNW 7 11 4 6 1013.6 1007.8 33.0
19/09:03pm 14.6 14.8 14.6 100 0.0 W 7 9 4 5 1013.4 1007.5 32.4
19/09:00pm 14.6 14.8 14.6 100 0.0 W 7 11 4 6 1013.4 1007.5 32.2
19/08:38pm 14.7 13.0 14.7 100 0.0 NW 17 24 9 13 1013.0 1007.2 31.6
19/08:30pm 14.9 12.6 14.7 99 0.1 NW 20 32 11 17 1012.8 1007.0 31.4
19/08:18pm 15.3 12.5 15.3 100 0.0 NW 24 33 13 18 1012.5 1006.6 30.8
19/08:16pm 15.6 12.9 15.6 100 0.0 NW 24 33 13 18 1012.6 1006.7 30.2
19/08:00pm 15.4 13.9 15.4 100 0.0 NNW 17 20 9 11 1011.8 1005.9 29.4
19/07:30pm 14.9 13.6 14.7 99 0.1 NW 15 20 8 11 1011.6 1005.7 28.2
19/07:00pm 15.5 13.6 15.3 99 0.1 NNW 19 26 10 14 1011.5 1005.6 27.2
19/06:57pm 15.6 13.8 15.4 99 0.1 NNW 19 26 10 14 1011.5 1005.6 27.0
19/06:33pm 15.9 15.4 15.9 100 0.0 NW 13 17 7 9 1011.5 1005.6 24.6
19/06:30pm 16.0 15.5 16.0 100 0.0 NW 13 19 7 10 1011.6 1005.7 24.4
19/06:00pm 16.2 16.5 16.0 99 0.1 NNW 9 13 5 7 1011.4 1005.5 22.6
19/05:38pm 16.4 16.4 16.2 99 0.1 N 11 15 6 8 1011.0 1005.1 21.8
19/05:30pm 16.3 16.2 16.1 99 0.1 N 11 13 6 7 1010.8 1004.9 21.6
19/05:14pm 16.3 15.9 16.1 99 0.1 NW 13 17 7 9 1010.9 1005.0 20.4
19/05:05pm 16.4 15.2 16.2 99 0.1 N 17 28 9 15 1010.9 1005.0 19.4
19/05:00pm 16.4 14.7 16.2 99 0.1 N 20 28 11 15 1010.7 1004.8 19.0
19/04:30pm 16.0 15.8 15.8 99 0.1 NNW 11 24 6 13 1011.0 1005.1 16.4
19/04:00pm 16.1 12.8 15.0 93 0.7 NW 26 37 14 20 1011.5 1005.6 5.8
19/03:45pm 18.5 16.8 17.2 92 0.8 NNW 22 32 12 17 1011.4 1005.5 2.0
19/03:30pm 19.9 19.2 17.3 85 1.7 NNW 17 24 9 13 1010.9 1005.0 1.0
19/03:00pm 20.0 19.6 17.2 84 1.8 NNW 15 19 8 10 1010.6 1004.7 1.0
19/02:30pm 19.6 19.7 18.3 92 0.8 N 15 20 8 11 1011.7 1005.8 1.0
19/02:07pm 18.6 17.5 17.3 92 0.8 NNW 19 24 10 13 1012.0 1006.2 0.6
19/02:00pm 18.6 17.2 17.1 91 1.0 NNW 20 28 11 15 1012.1 1006.3 0.6
19/01:55pm 18.5 16.3 16.8 90 1.1 NNW 24 35 13 19 1012.1 1006.3 0.6
19/01:30pm 21.5 18.8 15.6 69 3.7 NW 24 32 13 17 1012.0 1006.2 0.0
19/01:00pm 22.0 19.4 15.8 68 3.9 NW 24 32 13 17 1012.3 1006.4 0.0
19/12:30pm 22.1 20.3 15.9 68 3.9 NNW 20 30 11 16 1012.3 1006.4 0.0
19/12:00pm 22.1 19.4 15.7 67 4.0 NW 24 30 13 16 1012.5 1006.6 0.0
19/11:30am 21.5 18.0 14.6 65 4.3 NW 26 35 14 19 1012.9 1007.1 0.0
19/11:00am 22.0 17.8 14.6 63 4.6 NNW 30 43 16 23 1012.9 1007.1 0.0
19/10:30am 21.6 18.4 14.3 63 4.5 NW 24 33 13 18 1013.0 1007.2 0.0

Other Formats:

Comma delimited format used in spreadsheet applications
http://www.bom.gov.au/fwo/IDN60801/IDN60801.95773.axf

JavaScript Object Notation format (JSON) in row-major order
http://www.bom.gov.au/fwo/IDN60801/IDN60801.95773.json